Time;durP1;ratioP1;P1;durP2;ratioP2;P2;SDS_P1;SDS_P2;PMS_P1;PMS_P2;Temp;Humidity;BMP_temperature;BMP_pressure;BME280_temperature;BME280_humidity;BME280_pressure;Samples;Min_cycle;Max_cycle;Signal;HPM_P1;HPM_P2
2023/04/21 00:14:23;;;;;;;23.38;13.32;;;;;;;7.51;71.61;100419.19;30853004;28;113122;-61
2023/04/21 00:29:24;;;;;;;23.95;13.48;;;;;;;7.38;71.76;100407.09;30855931;28;97450;-61
2023/04/21 00:44:25;;;;;;;24.52;13.30;;;;;;;7.24;72.13;100411.00;30865042;28;96793;-61
2023/04/21 00:59:25;;;;;;;24.67;13.10;;;;;;;7.12;72.27;100406.84;30868498;28;104522;-62
2023/04/21 01:14:25;;;;;;;23.55;13.13;;;;;;;6.98;73.11;100407.31;30866861;28;108026;-62
2023/04/21 01:29:25;;;;;;;20.10;12.98;;;;;;;6.85;72.53;100402.28;30865598;28;96585;-61
2023/04/21 01:44:26;;;;;;;25.38;12.07;;;;;;;6.72;73.41;100399.94;30862792;28;104465;-61
2023/04/21 01:59:26;;;;;;;19.88;11.75;;;;;;;6.63;73.36;100406.91;30863017;28;96650;-62
2023/04/21 02:14:27;;;;;;;18.35;12.95;;;;;;;6.48;72.93;100403.00;30871232;28;97023;-63
2023/04/21 02:29:27;;;;;;;24.80;13.13;;;;;;;6.37;73.69;100409.25;30983653;28;98186;-62
2023/04/21 02:44:27;;;;;;;28.10;13.50;;;;;;;6.06;74.24;100425.22;30980729;28;97466;-62
2023/04/21 02:59:28;;;;;;;23.23;14.93;;;;;;;5.86;74.36;100429.56;30979694;28;105126;-62
2023/04/21 03:14:28;;;;;;;21.63;14.85;;;;;;;5.78;75.08;100432.88;30978983;28;97138;-62
2023/04/21 03:29:28;;;;;;;23.98;14.45;;;;;;;5.78;75.26;100427.59;30977480;28;105148;-61
2023/04/21 03:44:29;;;;;;;25.13;15.77;;;;;;;5.55;74.90;100433.06;30974186;28;108981;-62
2023/04/21 03:59:29;;;;;;;23.05;14.07;;;;;;;5.66;75.98;100439.22;30973582;28;96689;-59
2023/04/21 04:14:30;;;;;;;27.15;13.98;;;;;;;5.74;75.40;100453.47;30992608;28;96674;-63
2023/04/21 04:29:31;;;;;;;36.60;15.75;;;;;;;5.92;75.29;100458.13;30992343;28;96699;-63
2023/04/21 04:44:31;;;;;;;34.90;16.73;;;;;;;6.26;75.12;100445.44;30989093;28;96817;-60
2023/04/21 04:59:31;;;;;;;46.42;18.33;;;;;;;6.79;74.97;100448.69;30874724;28;112694;-61
2023/04/21 05:14:32;;;;;;;24.85;15.68;;;;;;;7.53;75.20;100457.81;30863585;28;96754;-61
2023/04/21 05:29:33;;;;;;;21.00;13.13;;;;;;;8.45;74.62;100464.13;30915647;28;98106;-68
2023/04/21 05:44:33;;;;;;;21.20;13.13;;;;;;;9.46;73.34;100452.38;30901093;28;97750;-68
2023/04/21 05:59:33;;;;;;;18.27;11.90;;;;;;;10.55;71.39;100467.81;30942018;28;98363;-67
2023/04/21 06:14:34;;;;;;;20.48;12.18;;;;;;;11.56;68.79;100472.00;30965484;28;107811;-64
2023/04/21 06:29:35;;;;;;;17.88;12.07;;;;;;;12.34;66.02;100467.75;30976613;28;97106;-64
2023/04/21 06:44:36;;;;;;;16.57;12.47;;;;;;;12.88;63.15;100449.22;30969093;28;96811;-63
2023/04/21 06:59:37;;;;;;;21.57;12.37;;;;;;;13.89;61.43;100463.16;30973638;28;97609;-62
2023/04/21 07:14:37;;;;;;;17.20;11.18;;;;;;;15.18;57.78;100457.13;30970494;28;97445;-62
2023/04/21 07:29:37;;;;;;;20.20;12.50;;;;;;;16.30;54.37;100459.06;30965732;28;97191;-64
2023/04/21 07:44:38;;;;;;;19.13;11.88;;;;;;;17.32;50.22;100462.56;30981916;28;103010;-64
2023/04/21 07:59:38;;;;;;;15.10;11.15;;;;;;;18.64;47.72;100455.28;30986060;28;96915;-63
2023/04/21 08:14:39;;;;;;;17.20;10.85;;;;;;;19.79;42.91;100449.56;30991634;28;96853;-65
2023/04/21 08:29:39;;;;;;;16.75;11.48;;;;;;;21.03;38.76;100452.94;30987050;28;97114;-65
2023/04/21 08:44:40;;;;;;;14.73;9.47;;;;;;;22.04;36.35;100434.88;30983428;28;97156;-64
2023/04/21 08:59:40;;;;;;;15.65;9.48;;;;;;;23.45;33.17;100427.00;30979113;28;97211;-63
2023/04/21 09:14:42;;;;;;;11.88;8.82;;;;;;;25.56;30.05;100423.69;30978220;28;100782;-61
2023/04/21 09:29:47;;;;;;;11.80;8.20;;;;;;;38.77;17.77;100419.22;30978736;28;96951;-63
2023/04/21 09:44:47;;;;;;;12.70;6.87;;;;;;;43.34;12.69;100411.56;30982702;28;96800;-62
2023/04/21 09:59:53;;;;;;;9.38;6.57;;;;;;;46.68;10.30;100395.22;30979308;28;96748;-64
2023/04/21 10:14:54;;;;;;;13.47;6.60;;;;;;;46.60;8.91;100368.28;30996491;28;99128;-63
2023/04/21 10:29:57;;;;;;;8.47;6.60;;;;;;;42.51;9.33;100354.78;30991762;28;96702;-66
2023/04/21 10:44:57;;;;;;;20.63;7.10;;;;;;;35.99;13.67;100335.28;30998271;28;97664;-64
2023/04/21 10:59:58;;;;;;;11.02;4.93;;;;;;;30.15;14.88;100323.00;30992130;28;98108;-64
2023/04/21 11:15:06;;;;;;;12.40;5.90;;;;;;;29.93;16.01;100305.19;30976191;28;98918;-63
2023/04/21 11:30:07;;;;;;;8.17;5.27;;;;;;;28.72;16.41;100307.19;30958059;28;97043;-63
2023/04/21 11:45:15;;;;;;;7.40;4.77;;;;;;;28.57;16.64;100287.03;30976812;28;97720;-63
2023/04/21 12:00:16;;;;;;;8.83;4.93;;;;;;;28.64;17.07;100281.25;30972910;28;97029;-64
2023/04/21 12:15:22;;;;;;;8.48;5.00;;;;;;;28.49;17.87;100263.00;30962288;28;97095;-63
2023/04/21 12:30:22;;;;;;;10.40;5.40;;;;;;;28.42;18.19;100262.50;30982354;28;97305;-65
2023/04/21 12:45:22;;;;;;;8.30;5.03;;;;;;;27.55;18.61;100245.59;30986096;28;98432;-66
2023/04/21 13:00:23;;;;;;;7.88;5.45;;;;;;;27.67;18.48;100237.88;30987209;28;97267;-64
2023/04/21 13:15:23;;;;;;;7.07;5.50;;;;;;;26.37;19.39;100232.28;30985994;28;97084;-66
2023/04/21 13:30:24;;;;;;;7.63;4.97;;;;;;;25.52;20.07;100218.03;30985464;28;96971;-66
2023/04/21 13:45:25;;;;;;;7.20;5.13;;;;;;;24.71;20.24;100190.16;30981863;28;98294;-65
2023/04/21 14:00:25;;;;;;;9.57;4.93;;;;;;;24.60;20.85;100180.28;30982294;28;96734;-66
2023/04/21 14:15:26;;;;;;;6.70;4.60;;;;;;;24.26;20.86;100159.66;30951407;28;97966;-66
2023/04/21 14:30:26;;;;;;;7.65;4.18;;;;;;;23.20;21.13;100148.38;30974932;28;97339;-66
2023/04/21 14:45:27;;;;;;;8.63;4.45;;;;;;;23.37;21.86;100136.59;30972003;28;96737;-64
2023/04/21 15:00:28;;;;;;;8.40;5.00;;;;;;;22.09;22.71;100129.25;30971329;28;96757;-64
2023/04/21 15:15:28;;;;;;;6.63;5.00;;;;;;;21.96;23.83;100121.47;30964859;28;97177;-64
2023/04/21 15:30:28;;;;;;;6.50;5.10;;;;;;;21.45;24.91;100108.69;30969015;28;97712;-66
2023/04/21 15:45:29;;;;;;;7.77;4.47;;;;;;;20.56;25.63;100099.09;30965689;28;97084;-61
2023/04/21 16:00:29;;;;;;;8.57;5.47;;;;;;;19.89;26.32;100097.63;30965117;28;96857;-63
2023/04/21 16:15:30;;;;;;;7.22;4.75;;;;;;;19.28;27.76;100092.31;30986545;28;97331;-63
2023/04/21 16:30:31;;;;;;;10.15;5.10;;;;;;;18.68;28.67;100078.78;30990643;28;97124;-62
2023/04/21 16:45:31;;;;;;;9.07;5.15;;;;;;;18.22;29.66;100079.09;30980099;28;97358;-64
2023/04/21 17:00:31;;;;;;;7.93;5.45;;;;;;;17.77;30.16;100065.81;30966148;28;97255;-64
2023/04/21 17:15:33;;;;;;;9.65;5.80;;;;;;;17.27;30.98;100057.69;30973799;28;97164;-64
2023/04/21 17:30:34;;;;;;;7.57;5.27;;;;;;;16.70;31.88;100051.16;30975229;28;97374;-65
2023/04/21 17:45:37;;;;;;;11.93;5.83;;;;;;;16.11;33.20;100058.38;30973088;28;96840;-60
2023/04/21 18:00:37;;;;;;;11.10;6.80;;;;;;;15.53;34.69;100054.47;30974576;28;97868;-61
2023/04/21 18:15:37;;;;;;;7.90;5.30;;;;;;;15.15;35.59;100075.69;30971921;28;96792;-64
2023/04/21 18:30:38;;;;;;;10.48;6.18;;;;;;;14.65;36.77;100097.38;30969544;28;97131;-68
2023/04/21 18:45:39;;;;;;;11.63;6.32;;;;;;;13.96;37.84;100099.00;30969731;28;97459;-67
2023/04/21 19:00:39;;;;;;;16.07;10.53;;;;;;;13.44;39.25;100101.88;30970374;28;96700;-66
2023/04/21 19:15:40;;;;;;;11.68;7.25;;;;;;;13.06;41.43;100103.91;30967520;28;97617;-62
2023/04/21 19:30:40;;;;;;;13.90;7.43;;;;;;;12.51;42.24;100096.25;30967576;28;97105;-66
2023/04/21 19:45:41;;;;;;;10.45;5.95;;;;;;;12.13;43.17;100099.00;31009939;28;100001;-66
2023/04/21 20:00:42;;;;;;;11.82;7.13;;;;;;;11.77;44.07;100089.81;30929780;28;96753;-65
2023/04/21 20:15:42;;;;;;;13.93;8.98;;;;;;;11.47;44.56;100094.22;30928542;28;98085;-65
2023/04/21 20:30:42;;;;;;;20.30;9.68;;;;;;;11.22;45.06;100098.88;30903027;28;106804;-65
2023/04/21 20:45:43;;;;;;;13.40;8.43;;;;;;;10.96;45.93;100103.53;30901678;28;96798;-63
2023/04/21 21:00:43;;;;;;;13.02;8.10;;;;;;;10.74;45.94;100107.78;30868365;28;97094;-65
2023/04/21 21:15:44;;;;;;;13.75;7.75;;;;;;;10.50;46.12;100109.56;30866488;28;97293;-66
2023/04/21 21:30:44;;;;;;;12.00;7.57;;;;;;;10.32;46.63;100112.41;30969653;28;97343;-64
2023/04/21 21:45:45;;;;;;;12.40;7.68;;;;;;;10.07;47.05;100114.28;30987529;28;96867;-66
2023/04/21 22:00:50;;;;;;;13.88;7.25;;;;;;;9.83;47.47;100113.31;30985903;28;96664;-65
2023/04/21 22:15:50;;;;;;;15.77;9.43;;;;;;;9.63;47.61;100117.31;30921869;28;96676;-65
2023/04/21 22:30:51;;;;;;;18.40;8.88;;;;;;;9.38;49.05;100113.81;30860559;28;96993;-63
2023/04/21 22:45:51;;;;;;;15.50;8.95;;;;;;;9.13;49.45;100106.63;30859155;28;96894;-65
2023/04/21 23:00:52;;;;;;;17.23;9.70;;;;;;;8.89;49.94;100106.56;30910516;28;97101;-63
2023/04/21 23:15:52;;;;;;;21.33;10.57;;;;;;;8.73;50.47;100113.47;30979549;28;97615;-65
2023/04/21 23:30:52;;;;;;;22.85;11.52;;;;;;;8.53;51.70;100104.09;30978973;28;106616;-64
2023/04/21 23:45:53;;;;;;;22.08;11.60;;;;;;;8.34;52.38;100108.63;30958436;28;96761;-64
